createdAt,value
2018-12-02T00:00:32.999Z,19.81
2018-12-02T00:01:32.991Z,19.83
2018-12-02T00:02:32.977Z,19.87
2018-12-02T00:03:32.971Z,19.77
2018-12-02T00:04:33.320Z,19.86
2018-12-02T00:05:32.943Z,19.78
2018-12-02T00:06:32.933Z,19.81
2018-12-02T00:07:32.922Z,19.77
2018-12-02T00:08:33.801Z,19.81
2018-12-02T00:09:33.333Z,19.91
2018-12-02T00:10:33.812Z,19.81
2018-12-02T00:11:32.880Z,19.76
2018-12-02T00:12:32.863Z,19.78
2018-12-02T00:13:32.854Z,19.84
2018-12-02T00:14:33.050Z,19.80
2018-12-02T00:15:32.833Z,19.68
2018-12-02T00:16:32.832Z,19.73
2018-12-02T00:17:32.810Z,19.78
2018-12-02T00:18:32.799Z,19.86
2018-12-02T00:19:33.325Z,19.73
2018-12-02T00:20:33.302Z,19.78
2018-12-02T00:21:33.303Z,19.81
2018-12-02T00:22:32.753Z,19.83
2018-12-02T00:23:33.308Z,19.78
2018-12-02T00:24:32.757Z,19.78
2018-12-02T00:25:32.722Z,19.80
2018-12-02T00:26:32.719Z,19.76
2018-12-02T00:27:32.701Z,19.76
2018-12-02T00:28:32.690Z,19.77
2018-12-02T00:29:32.707Z,19.81
2018-12-02T00:30:32.662Z,19.80
2018-12-02T00:31:32.655Z,19.78
2018-12-02T00:32:33.304Z,19.76
2018-12-02T00:33:32.648Z,19.73
2018-12-02T00:34:32.624Z,19.80
2018-12-02T00:35:32.645Z,19.73
2018-12-02T00:36:32.600Z,19.77
2018-12-02T00:37:32.593Z,19.78
2018-12-02T00:38:32.577Z,19.83
2018-12-02T00:39:33.306Z,19.73
2018-12-02T00:40:32.593Z,19.77
2018-12-02T00:41:32.542Z,19.76
2018-12-02T00:42:32.541Z,19.76
2018-12-02T00:43:32.519Z,19.76
2018-12-02T00:44:33.304Z,19.78
2018-12-02T00:45:32.818Z,19.73
2018-12-02T00:46:33.305Z,19.76
2018-12-02T00:47:32.482Z,19.71
2018-12-02T00:48:32.464Z,19.78
2018-12-02T00:49:32.455Z,19.73
2018-12-02T00:50:32.457Z,19.78
2018-12-02T00:51:32.430Z,19.74
2018-12-02T00:52:32.418Z,19.69
2018-12-02T00:53:32.417Z,19.73
2018-12-02T00:54:32.400Z,19.77
2018-12-02T00:55:32.824Z,19.74
2018-12-02T00:56:32.372Z,19.81
2018-12-02T00:57:32.364Z,19.68
2018-12-02T00:58:32.358Z,19.69
2018-12-02T00:59:32.344Z,19.69
2018-12-02T01:00:32.353Z,19.80
2018-12-02T01:01:32.321Z,19.74
2018-12-02T01:02:32.303Z,19.77
2018-12-02T01:03:32.806Z,19.68
2018-12-02T01:04:32.803Z,19.74
2018-12-02T01:05:32.296Z,19.68
2018-12-02T01:06:32.808Z,19.66
2018-12-02T01:07:32.251Z,19.69
2018-12-02T01:08:32.241Z,19.66
2018-12-02T01:09:32.229Z,19.74
2018-12-02T01:10:32.237Z,19.66
2018-12-02T01:11:32.224Z,19.74
2018-12-02T01:12:32.202Z,19.65
2018-12-02T01:13:32.804Z,19.73
2018-12-02T01:14:32.173Z,19.68
2018-12-02T01:15:32.201Z,19.68
2018-12-02T01:16:32.152Z,19.61
2018-12-02T01:17:32.142Z,19.73
2018-12-02T01:18:32.131Z,19.73
2018-12-02T01:19:32.121Z,19.63
2018-12-02T01:20:32.129Z,19.69
2018-12-02T01:21:32.094Z,19.63
2018-12-02T01:22:32.084Z,19.63
2018-12-02T01:23:32.072Z,19.62
2018-12-02T01:24:32.063Z,19.68
2018-12-02T01:25:32.078Z,19.65
2018-12-02T01:26:32.039Z,19.65
2018-12-02T01:27:32.804Z,19.61
2018-12-02T01:28:32.811Z,19.63
2018-12-02T01:29:32.007Z,19.73
2018-12-02T01:30:32.018Z,19.65
2018-12-02T01:31:31.987Z,19.66
2018-12-02T01:32:31.973Z,19.69
2018-12-02T01:33:31.961Z,19.65
2018-12-02T01:34:31.953Z,19.71
2018-12-02T01:35:31.969Z,19.66
2018-12-02T01:36:31.936Z,19.65
2018-12-02T01:37:31.920Z,19.68
2018-12-02T01:38:31.903Z,19.63
2018-12-02T01:39:31.896Z,19.65
2018-12-02T01:40:32.059Z,19.61
2018-12-02T01:41:32.804Z,19.71
2018-12-02T01:42:31.860Z,19.66
2018-12-02T01:43:32.813Z,19.65
2018-12-02T01:44:31.838Z,19.65
2018-12-02T01:45:31.859Z,19.63
2018-12-02T01:46:31.814Z,19.68
2018-12-02T01:47:32.306Z,19.66
2018-12-02T01:48:31.794Z,19.62
2018-12-02T01:49:31.786Z,19.63
2018-12-02T01:50:31.783Z,19.65
2018-12-02T01:51:31.759Z,19.71
2018-12-02T01:52:31.750Z,19.65
2018-12-02T01:53:31.733Z,19.62
2018-12-02T01:54:31.728Z,19.63
2018-12-02T01:55:31.740Z,19.63
2018-12-02T01:56:31.707Z,19.62
2018-12-02T01:57:31.695Z,19.66
2018-12-02T01:58:32.308Z,19.61
2018-12-02T01:59:31.670Z,19.58
2018-12-02T02:00:31.742Z,19.62
2018-12-02T02:01:32.311Z,19.62
2018-12-02T02:02:31.640Z,19.63
2018-12-02T02:03:31.625Z,19.56
2018-12-02T02:04:32.308Z,19.62
2018-12-02T02:05:31.681Z,19.63
2018-12-02T02:06:31.594Z,19.59
2018-12-02T02:07:31.591Z,19.58
2018-12-02T02:08:31.571Z,19.66
2018-12-02T02:09:31.562Z,19.62
2018-12-02T02:10:31.570Z,19.65
2018-12-02T02:11:31.536Z,19.66
2018-12-02T02:12:31.524Z,19.56
2018-12-02T02:13:31.523Z,19.65
2018-12-02T02:14:31.509Z,19.63
2018-12-02T02:15:31.825Z,19.62
2018-12-02T02:16:32.308Z,19.62
2018-12-02T02:17:31.469Z,19.63
2018-12-02T02:18:31.468Z,19.63
2018-12-02T02:19:31.454Z,19.62
2018-12-02T02:20:31.571Z,19.62
2018-12-02T02:21:31.424Z,19.59
2018-12-02T02:22:32.310Z,19.58
2018-12-02T02:23:31.402Z,19.61
2018-12-02T02:24:32.310Z,19.61
2018-12-02T02:25:31.420Z,19.66
2018-12-02T02:26:31.370Z,19.58
2018-12-02T02:27:32.305Z,19.62
2018-12-02T02:28:31.345Z,19.61
2018-12-02T02:29:32.306Z,19.61
2018-12-02T02:30:31.825Z,19.56
2018-12-02T02:31:31.338Z,19.58
2018-12-02T02:32:31.301Z,19.58
2018-12-02T02:33:31.290Z,19.61
2018-12-02T02:34:31.279Z,19.56
2018-12-02T02:35:31.290Z,19.58
2018-12-02T02:36:31.809Z,19.61
2018-12-02T02:37:31.248Z,19.54
2018-12-02T02:38:31.242Z,19.59
2018-12-02T02:39:31.232Z,19.61
2018-12-02T02:40:31.239Z,19.58
2018-12-02T02:41:31.202Z,19.50
2018-12-02T02:42:31.816Z,19.55
2018-12-02T02:43:31.179Z,19.55
2018-12-02T02:44:31.168Z,19.59
2018-12-02T02:45:31.182Z,19.61
2018-12-02T02:46:31.146Z,19.43
2018-12-02T02:47:31.151Z,19.51
2018-12-02T02:48:31.131Z,19.58
2018-12-02T02:49:31.112Z,19.48
2018-12-02T02:50:31.317Z,19.55
2018-12-02T02:51:31.094Z,19.58
2018-12-02T02:52:31.079Z,19.56
2018-12-02T02:53:31.067Z,19.62
2018-12-02T02:54:31.068Z,19.47
2018-12-02T02:55:31.051Z,19.46
2018-12-02T02:56:31.052Z,19.44
2018-12-02T02:57:31.811Z,19.44
2018-12-02T02:58:31.012Z,19.51
2018-12-02T02:59:31.810Z,19.58
2018-12-02T03:00:30.998Z,19.44
2018-12-02T03:01:31.012Z,19.41
2018-12-02T03:02:30.970Z,19.47
2018-12-02T03:03:31.812Z,19.41
2018-12-02T03:04:31.809Z,19.44
2018-12-02T03:05:30.935Z,19.47
2018-12-02T03:06:30.964Z,19.44
2018-12-02T03:07:30.929Z,19.54
2018-12-02T03:08:30.903Z,19.44
2018-12-02T03:09:31.816Z,19.48
2018-12-02T03:10:30.877Z,19.54
2018-12-02T03:11:30.882Z,19.40
2018-12-02T03:12:30.915Z,19.51
2018-12-02T03:13:31.815Z,19.58
2018-12-02T03:14:31.813Z,19.44
2018-12-02T03:15:30.820Z,19.48
2018-12-02T03:16:30.825Z,19.50
2018-12-02T03:17:30.843Z,19.50
2018-12-02T03:18:31.321Z,19.48
2018-12-02T03:19:30.778Z,19.47
2018-12-02T03:20:30.778Z,19.54
2018-12-02T03:21:30.827Z,19.55
2018-12-02T03:22:31.339Z,19.50
2018-12-02T03:23:30.734Z,19.47
2018-12-02T03:24:30.721Z,19.56
2018-12-02T03:25:30.715Z,19.47
2018-12-02T03:26:30.823Z,19.55
2018-12-02T03:27:30.709Z,19.54
2018-12-02T03:28:31.318Z,19.54
2018-12-02T03:29:30.664Z,19.51
2018-12-02T03:30:31.316Z,19.50
2018-12-02T03:31:30.668Z,19.48
2018-12-02T03:32:30.679Z,19.50
2018-12-02T03:33:30.635Z,19.48
2018-12-02T03:34:30.611Z,19.51
2018-12-02T03:35:31.311Z,19.48
2018-12-02T03:36:30.607Z,19.48
2018-12-02T03:37:31.312Z,19.55
2018-12-02T03:38:30.608Z,19.50
2018-12-02T03:39:30.563Z,19.47
2018-12-02T03:40:31.311Z,19.51
2018-12-02T03:41:30.824Z,19.46
2018-12-02T03:42:30.525Z,19.48
2018-12-02T03:43:30.514Z,19.51
2018-12-02T03:44:30.513Z,19.48
2018-12-02T03:45:30.496Z,19.50
2018-12-02T03:46:30.511Z,19.48
2018-12-02T03:47:30.476Z,19.46
2018-12-02T03:48:30.460Z,19.51
2018-12-02T03:49:30.445Z,19.50
2018-12-02T03:50:30.452Z,19.44
2018-12-02T03:51:30.843Z,19.44
2018-12-02T03:52:30.417Z,19.44
2018-12-02T03:53:30.426Z,19.50
2018-12-02T03:54:30.388Z,19.47
2018-12-02T03:55:30.381Z,19.51
2018-12-02T03:56:30.385Z,19.44
2018-12-02T03:57:30.360Z,19.41
2018-12-02T03:58:30.356Z,19.43
2018-12-02T03:59:30.340Z,19.47
2018-12-02T04:00:30.340Z,19.48
2018-12-02T04:01:30.843Z,19.46
2018-12-02T04:02:30.303Z,19.48
2018-12-02T04:03:30.331Z,19.47
2018-12-02T04:04:30.283Z,19.47
2018-12-02T04:05:30.276Z,19.41
2018-12-02T04:06:30.275Z,19.46
2018-12-02T04:07:30.248Z,19.44
2018-12-02T04:08:30.250Z,19.47
2018-12-02T04:09:30.227Z,19.44
2018-12-02T04:10:30.218Z,19.44
2018-12-02T04:11:30.228Z,19.40
2018-12-02T04:12:30.209Z,19.44
2018-12-02T04:13:30.201Z,19.43
2018-12-02T04:14:30.174Z,19.48
2018-12-02T04:15:30.162Z,19.40
2018-12-02T04:16:30.174Z,19.40
2018-12-02T04:17:30.138Z,19.39
2018-12-02T04:18:30.201Z,19.36
2018-12-02T04:19:30.121Z,19.46
2018-12-02T04:20:30.817Z,19.44
2018-12-02T04:21:30.330Z,19.39
2018-12-02T04:22:30.813Z,19.44
2018-12-02T04:23:30.816Z,19.46
2018-12-02T04:24:30.153Z,19.37
2018-12-02T04:25:30.050Z,19.44
2018-12-02T04:26:30.330Z,19.40
2018-12-02T04:27:30.033Z,19.36
2018-12-02T04:28:30.050Z,19.43
2018-12-02T04:29:30.013Z,19.44
2018-12-02T04:30:29.997Z,19.40
2018-12-02T04:31:30.001Z,19.39
2018-12-02T04:32:29.976Z,19.47
2018-12-02T04:33:30.814Z,19.36
2018-12-02T04:34:29.958Z,19.32
2018-12-02T04:35:30.813Z,19.37
2018-12-02T04:36:29.964Z,19.36
2018-12-02T04:37:30.813Z,19.37
2018-12-02T04:38:30.819Z,19.44
2018-12-02T04:39:29.906Z,19.37
2018-12-02T04:40:29.889Z,19.43
2018-12-02T04:41:29.935Z,19.33
2018-12-02T04:42:30.816Z,19.47
2018-12-02T04:43:29.856Z,19.36
2018-12-02T04:44:29.847Z,19.37
2018-12-02T04:45:29.836Z,19.32
2018-12-02T04:46:30.819Z,19.44
2018-12-02T04:47:29.839Z,19.36
2018-12-02T04:48:29.798Z,19.36
2018-12-02T04:49:29.791Z,19.39
2018-12-02T04:50:29.780Z,19.43
2018-12-02T04:51:30.315Z,19.36
2018-12-02T04:52:29.776Z,19.39
2018-12-02T04:53:29.745Z,19.37
2018-12-02T04:54:30.317Z,19.33
2018-12-02T04:55:29.725Z,19.39
2018-12-02T04:56:30.313Z,19.44
2018-12-02T04:57:29.719Z,19.39
2018-12-02T04:58:29.700Z,19.39
2018-12-02T04:59:29.681Z,19.37
2018-12-02T05:00:29.674Z,19.32
2018-12-02T05:01:30.311Z,19.36
2018-12-02T05:02:29.682Z,19.41
2018-12-02T05:03:30.317Z,19.32
2018-12-02T05:04:29.636Z,19.33
2018-12-02T05:05:29.616Z,19.44
2018-12-02T05:06:30.315Z,19.33
2018-12-02T05:07:29.625Z,19.31
2018-12-02T05:08:30.318Z,19.39
2018-12-02T05:09:30.316Z,19.36
2018-12-02T05:10:29.571Z,19.39
2018-12-02T05:11:29.550Z,19.33
2018-12-02T05:12:29.832Z,19.32
2018-12-02T05:13:30.316Z,19.36
2018-12-02T05:14:29.522Z,19.33
2018-12-02T05:15:29.516Z,19.39
2018-12-02T05:16:29.500Z,19.36
2018-12-02T05:17:29.520Z,19.37
2018-12-02T05:18:29.474Z,19.39
2018-12-02T05:19:30.316Z,19.39
2018-12-02T05:20:30.316Z,19.43
2018-12-02T05:21:29.440Z,19.37
2018-12-02T05:22:29.454Z,19.37
2018-12-02T05:23:29.425Z,19.36
2018-12-02T05:24:29.408Z,19.39
2018-12-02T05:25:30.316Z,19.32
2018-12-02T05:26:30.324Z,19.33
2018-12-02T05:27:29.407Z,19.37
2018-12-02T05:28:29.371Z,19.37
2018-12-02T05:29:29.396Z,19.32
2018-12-02T05:30:29.351Z,19.39
2018-12-02T05:31:29.339Z,19.39
2018-12-02T05:32:29.344Z,19.33
2018-12-02T05:33:29.311Z,19.39
2018-12-02T05:34:29.307Z,19.37
2018-12-02T05:35:29.287Z,19.39
2018-12-02T05:36:29.276Z,19.37
2018-12-02T05:37:29.285Z,19.31
2018-12-02T05:38:29.264Z,19.36
2018-12-02T05:39:29.828Z,19.40
2018-12-02T05:40:29.231Z,19.37
2018-12-02T05:41:29.818Z,19.36
2018-12-02T05:42:29.485Z,19.29
2018-12-02T05:43:29.206Z,19.40
2018-12-02T05:44:29.189Z,19.40
2018-12-02T05:45:29.177Z,19.33
2018-12-02T05:46:29.166Z,19.37
2018-12-02T05:47:29.177Z,19.33
2018-12-02T05:48:29.145Z,19.36
2018-12-02T05:49:29.144Z,19.41
2018-12-02T05:50:29.817Z,19.32
2018-12-02T05:51:29.110Z,19.31
2018-12-02T05:52:29.121Z,19.39
2018-12-02T05:53:29.090Z,19.37
2018-12-02T05:54:29.077Z,19.29
2018-12-02T05:55:29.073Z,19.39
2018-12-02T05:56:29.061Z,19.31
2018-12-02T05:57:29.333Z,19.28
2018-12-02T05:58:29.035Z,19.37
2018-12-02T05:59:29.036Z,19.36
2018-12-02T06:00:29.016Z,19.36
2018-12-02T06:01:29.003Z,19.28
2018-12-02T06:02:29.013Z,19.29
2018-12-02T06:03:28.981Z,19.37
2018-12-02T06:04:29.818Z,19.36
2018-12-02T06:05:28.963Z,19.33
2018-12-02T06:06:28.945Z,19.32
2018-12-02T06:07:28.974Z,19.31
2018-12-02T06:08:29.814Z,19.25
2018-12-02T06:09:29.814Z,19.32
2018-12-02T06:10:28.904Z,19.33
2018-12-02T06:11:28.903Z,19.36
2018-12-02T06:12:28.908Z,19.36
2018-12-02T06:13:28.871Z,19.32
2018-12-02T06:14:28.859Z,19.32
2018-12-02T06:15:28.848Z,19.33
2018-12-02T06:16:28.840Z,19.23
2018-12-02T06:17:28.846Z,19.37
2018-12-02T06:18:28.817Z,19.37
2018-12-02T06:19:28.801Z,19.36
2018-12-02T06:20:28.793Z,19.33
2018-12-02T06:21:29.344Z,19.31
2018-12-02T06:22:28.794Z,19.39
2018-12-02T06:23:28.760Z,19.31
2018-12-02T06:24:28.751Z,19.33
2018-12-02T06:25:28.742Z,19.32
2018-12-02T06:26:28.730Z,19.29
2018-12-02T06:27:28.753Z,19.32
2018-12-02T06:28:28.716Z,19.32
2018-12-02T06:29:28.697Z,19.31
2018-12-02T06:30:28.689Z,19.33
2018-12-02T06:31:28.676Z,19.23
2018-12-02T06:32:28.688Z,19.23
2018-12-02T06:33:28.654Z,19.25
2018-12-02T06:34:29.329Z,19.31
2018-12-02T06:35:28.637Z,19.32
2018-12-02T06:36:29.319Z,19.26
2018-12-02T06:37:28.633Z,19.32
2018-12-02T06:38:28.603Z,19.26
2018-12-02T06:39:28.586Z,19.26
2018-12-02T06:40:28.576Z,19.33
2018-12-02T06:41:28.564Z,19.33
2018-12-02T06:42:28.572Z,19.36
2018-12-02T06:43:28.541Z,19.33
2018-12-02T06:44:29.326Z,19.33
2018-12-02T06:45:29.319Z,19.31
2018-12-02T06:46:29.319Z,19.40
2018-12-02T06:47:28.545Z,19.28
2018-12-02T06:48:29.318Z,19.31
2018-12-02T06:49:29.321Z,19.31
2018-12-02T06:50:28.471Z,19.32
2018-12-02T06:51:29.319Z,19.32
2018-12-02T06:52:28.450Z,19.32
2018-12-02T06:53:28.451Z,19.21
2018-12-02T06:54:29.319Z,19.26
2018-12-02T06:55:28.412Z,19.28
2018-12-02T06:56:29.323Z,19.33
2018-12-02T06:57:28.394Z,19.25
2018-12-02T06:58:28.401Z,19.23
2018-12-02T06:59:28.375Z,19.28
2018-12-02T07:00:28.353Z,19.23
2018-12-02T07:01:28.349Z,19.33
2018-12-02T07:02:28.339Z,19.23
2018-12-02T07:03:28.836Z,19.26
2018-12-02T07:04:28.311Z,19.28
2018-12-02T07:05:28.300Z,19.29
2018-12-02T07:06:28.295Z,19.32
2018-12-02T07:07:28.280Z,19.28
2018-12-02T07:08:28.306Z,19.23
2018-12-02T07:09:28.260Z,19.23
2018-12-02T07:10:28.245Z,19.25
2018-12-02T07:11:28.236Z,19.23
2018-12-02T07:12:28.227Z,19.23
2018-12-02T07:13:28.243Z,19.26
2018-12-02T07:14:28.200Z,19.32
2018-12-02T07:15:28.192Z,19.25
2018-12-02T07:16:28.824Z,19.23
2018-12-02T07:17:28.167Z,19.26
2018-12-02T07:18:28.230Z,19.28
2018-12-02T07:19:28.145Z,19.25
2018-12-02T07:20:28.135Z,19.25
2018-12-02T07:21:29.009Z,19.31
2018-12-02T07:22:28.115Z,19.25
2018-12-02T07:23:28.134Z,19.21
2018-12-02T07:24:28.841Z,19.25
2018-12-02T07:25:28.822Z,19.25
2018-12-02T07:26:28.073Z,19.22
2018-12-02T07:27:28.823Z,19.23
2018-12-02T07:28:28.065Z,19.25
2018-12-02T07:29:28.038Z,19.25
2018-12-02T07:30:28.826Z,19.28
2018-12-02T07:31:28.019Z,19.22
2018-12-02T07:32:28.002Z,19.28
2018-12-02T07:33:28.011Z,19.25
2018-12-02T07:34:27.983Z,19.28
2018-12-02T07:35:28.834Z,19.25
2018-12-02T07:36:27.963Z,19.23
2018-12-02T07:37:27.949Z,19.22
2018-12-02T07:38:27.964Z,19.21
2018-12-02T07:39:28.822Z,19.28
2018-12-02T07:40:28.822Z,19.21
2018-12-02T07:41:27.909Z,19.18
2018-12-02T07:42:28.823Z,19.19
2018-12-02T07:43:28.343Z,19.26
2018-12-02T07:44:27.873Z,19.23
2018-12-02T07:45:28.824Z,19.21
2018-12-02T07:46:27.852Z,19.23
2018-12-02T07:47:27.847Z,19.28
2018-12-02T07:48:27.858Z,19.22
2018-12-02T07:49:27.820Z,19.21
2018-12-02T07:50:27.807Z,19.23
2018-12-02T07:51:28.322Z,19.21
2018-12-02T07:52:27.787Z,19.23
2018-12-02T07:53:27.798Z,19.25
2018-12-02T07:54:27.766Z,19.26
2018-12-02T07:55:27.752Z,19.22
2018-12-02T07:56:27.744Z,19.18
2018-12-02T07:57:28.322Z,19.22
2018-12-02T07:58:27.841Z,19.21
2018-12-02T07:59:28.327Z,19.21
2018-12-02T08:00:27.696Z,19.22
2018-12-02T08:01:27.685Z,19.23
2018-12-02T08:02:28.321Z,19.21
2018-12-02T08:03:27.685Z,19.25
2018-12-02T08:04:27.652Z,19.21
2018-12-02T08:05:27.648Z,19.23
2018-12-02T08:06:27.630Z,19.22
2018-12-02T08:07:28.326Z,19.18
2018-12-02T08:08:27.792Z,19.18
2018-12-02T08:09:27.598Z,19.22
2018-12-02T08:10:28.324Z,19.23
2018-12-02T08:11:27.585Z,19.21
2018-12-02T08:12:27.565Z,19.26
2018-12-02T08:13:27.570Z,19.19
2018-12-02T08:14:27.540Z,19.18
2018-12-02T08:15:27.528Z,19.21
2018-12-02T08:16:27.522Z,19.21
2018-12-02T08:17:28.323Z,19.21
2018-12-02T08:18:27.524Z,19.21
2018-12-02T08:19:27.488Z,19.21
2018-12-02T08:20:27.474Z,19.28
2018-12-02T08:21:27.464Z,19.23
2018-12-02T08:22:27.456Z,19.22
2018-12-02T08:23:27.476Z,19.21
2018-12-02T08:24:27.437Z,19.23
2018-12-02T08:25:28.323Z,19.25
2018-12-02T08:26:27.410Z,19.23
2018-12-02T08:27:27.400Z,19.21
2018-12-02T08:28:27.403Z,19.21
2018-12-02T08:29:27.376Z,19.26
2018-12-02T08:30:27.368Z,19.14
2018-12-02T08:31:28.322Z,19.21
2018-12-02T08:32:27.342Z,19.22
2018-12-02T08:33:27.835Z,19.22
2018-12-02T08:34:27.320Z,19.14
2018-12-02T08:35:27.310Z,19.22
2018-12-02T08:36:27.298Z,19.16
2018-12-02T08:37:27.825Z,19.14
2018-12-02T08:38:27.337Z,19.22
2018-12-02T08:39:27.260Z,19.14
2018-12-02T08:40:27.837Z,19.14
2018-12-02T08:41:27.239Z,19.19
2018-12-02T08:42:27.233Z,19.14
2018-12-02T08:43:27.244Z,19.19
2018-12-02T08:44:27.827Z,19.22
2018-12-02T08:45:27.828Z,19.18
2018-12-02T08:46:27.187Z,19.22
2018-12-02T08:47:27.177Z,19.11
2018-12-02T08:48:27.192Z,19.14
2018-12-02T08:49:27.823Z,19.21
2018-12-02T08:50:27.141Z,19.19
2018-12-02T08:51:27.137Z,19.18
2018-12-02T08:52:27.124Z,19.18
2018-12-02T08:53:27.147Z,19.19
2018-12-02T08:54:27.098Z,19.11
2018-12-02T08:55:27.123Z,19.23
2018-12-02T08:56:27.076Z,19.22
2018-12-02T08:57:27.070Z,19.18
2018-12-02T08:58:27.060Z,19.19
2018-12-02T08:59:27.064Z,19.18
2018-12-02T09:00:27.821Z,19.23
2018-12-02T09:01:27.022Z,19.18
2018-12-02T09:02:27.014Z,19.19
2018-12-02T09:03:26.999Z,19.13
2018-12-02T09:04:27.013Z,19.14
2018-12-02T09:05:27.021Z,19.16
2018-12-02T09:06:26.972Z,19.22
2018-12-02T09:07:26.974Z,19.18
2018-12-02T09:08:26.945Z,19.13
2018-12-02T09:09:26.952Z,19.21
2018-12-02T09:10:26.919Z,19.19
2018-12-02T09:11:26.906Z,19.19
2018-12-02T09:12:26.898Z,19.16
2018-12-02T09:13:26.891Z,19.19
2018-12-02T09:14:26.892Z,19.22
2018-12-02T09:15:26.863Z,19.14
2018-12-02T09:16:26.851Z,19.16
2018-12-02T09:17:27.824Z,19.18
2018-12-02T09:18:26.832Z,19.19
2018-12-02T09:19:26.840Z,19.14
2018-12-02T09:20:26.808Z,19.14
2018-12-02T09:21:26.798Z,19.18
2018-12-02T09:22:27.325Z,19.16
2018-12-02T09:23:27.325Z,19.21
2018-12-02T09:24:26.799Z,19.13
2018-12-02T09:25:26.754Z,19.13
2018-12-02T09:26:26.741Z,19.16
2018-12-02T09:27:26.731Z,19.18
2018-12-02T09:28:26.718Z,19.13
2018-12-02T09:29:26.889Z,19.13
2018-12-02T09:30:27.325Z,19.18
2018-12-02T09:31:26.687Z,19.19
2018-12-02T09:32:26.676Z,19.13
2018-12-02T09:33:26.679Z,19.18
2018-12-02T09:34:26.844Z,19.22
2018-12-02T09:35:26.652Z,19.13
2018-12-02T09:36:26.630Z,19.16
2018-12-02T09:37:26.622Z,19.18
2018-12-02T09:38:26.609Z,19.19
2018-12-02T09:39:26.856Z,19.16
2018-12-02T09:40:26.596Z,19.19
2018-12-02T09:41:26.584Z,19.16
2018-12-02T09:42:26.563Z,19.14
2018-12-02T09:43:26.555Z,19.16
2018-12-02T09:44:26.561Z,19.14
2018-12-02T09:45:26.533Z,19.13
2018-12-02T09:46:26.524Z,19.16
2018-12-02T09:47:26.505Z,19.14
2018-12-02T09:48:26.496Z,19.18
2018-12-02T09:49:26.514Z,19.21
2018-12-02T09:50:27.326Z,19.11
2018-12-02T09:51:26.477Z,19.18
2018-12-02T09:52:27.325Z,19.11
2018-12-02T09:53:26.448Z,19.22
2018-12-02T09:54:26.504Z,19.14
2018-12-02T09:55:26.417Z,19.16
2018-12-02T09:56:27.418Z,19.16
2018-12-02T09:57:27.370Z,19.16
2018-12-02T09:58:26.384Z,19.21
2018-12-02T09:59:26.390Z,19.13
2018-12-02T10:00:26.361Z,19.14
2018-12-02T10:01:26.351Z,19.13
2018-12-02T10:02:27.338Z,19.16
2018-12-02T10:03:26.328Z,19.14
2018-12-02T10:04:26.841Z,19.16
2018-12-02T10:05:26.306Z,19.18
2018-12-02T10:06:26.295Z,19.13
2018-12-02T10:07:26.295Z,19.16
2018-12-02T10:08:26.278Z,19.18
2018-12-02T10:09:26.338Z,19.18
2018-12-02T10:10:26.249Z,19.18
2018-12-02T10:11:26.240Z,19.13
2018-12-02T10:12:26.313Z,19.16
2018-12-02T10:13:26.216Z,19.16
2018-12-02T10:14:26.233Z,19.14
2018-12-02T10:15:26.196Z,19.13
2018-12-02T10:16:26.827Z,19.18
2018-12-02T10:17:26.179Z,19.16
2018-12-02T10:18:26.827Z,19.14
2018-12-02T10:19:26.171Z,19.11
2018-12-02T10:20:26.145Z,19.14
2018-12-02T10:21:26.128Z,19.14
2018-12-02T10:22:26.115Z,19.19
2018-12-02T10:23:26.828Z,19.16
2018-12-02T10:24:26.115Z,19.13
2018-12-02T10:25:26.083Z,19.14
2018-12-02T10:26:26.832Z,19.14
2018-12-02T10:27:26.062Z,19.18
2018-12-02T10:28:26.045Z,19.16
2018-12-02T10:29:26.058Z,19.18
2018-12-02T10:30:26.833Z,19.18
2018-12-02T10:31:26.015Z,19.19
2018-12-02T10:32:26.008Z,19.18
2018-12-02T10:33:26.009Z,19.21
2018-12-02T10:34:25.996Z,19.16
2018-12-02T10:35:25.972Z,19.19
2018-12-02T10:36:26.826Z,19.19
2018-12-02T10:37:26.828Z,19.18
2018-12-02T10:38:25.946Z,19.14
2018-12-02T10:39:25.942Z,19.16
2018-12-02T10:40:25.918Z,19.16
2018-12-02T10:41:26.828Z,19.11
2018-12-02T10:42:25.893Z,19.11
2018-12-02T10:43:26.828Z,19.19
2018-12-02T10:44:25.893Z,19.22
2018-12-02T10:45:25.860Z,19.25
2018-12-02T10:46:25.853Z,19.19
2018-12-02T10:47:25.851Z,19.13
2018-12-02T10:48:26.327Z,19.21
2018-12-02T10:49:25.855Z,19.16
2018-12-02T10:50:25.804Z,19.22
2018-12-02T10:51:25.794Z,19.16
2018-12-02T10:52:26.330Z,19.18
2018-12-02T10:53:25.809Z,19.19
2018-12-02T10:54:25.804Z,19.21
2018-12-02T10:55:26.329Z,19.21
2018-12-02T10:56:25.737Z,19.19
2018-12-02T10:57:26.332Z,19.14
2018-12-02T10:58:26.329Z,19.13
2018-12-02T10:59:25.861Z,19.13
2018-12-02T11:00:26.341Z,19.16
2018-12-02T11:01:26.336Z,19.13
2018-12-02T11:02:26.329Z,19.22
2018-12-02T11:03:26.332Z,19.18
2018-12-02T11:04:25.664Z,19.18
2018-12-02T11:05:25.856Z,19.14
2018-12-02T11:06:25.631Z,19.19
2018-12-02T11:07:25.615Z,19.22
2018-12-02T11:08:25.619Z,19.18
2018-12-02T11:09:25.603Z,19.18
2018-12-02T11:10:25.601Z,19.21
2018-12-02T11:11:25.581Z,19.14
2018-12-02T11:12:25.560Z,19.16
2018-12-02T11:13:25.561Z,19.19
2018-12-02T11:14:25.539Z,19.16
2018-12-02T11:15:25.554Z,19.16
2018-12-02T11:16:25.518Z,19.14
2018-12-02T11:17:25.507Z,19.18
2018-12-02T11:18:25.598Z,19.14
2018-12-02T11:19:25.482Z,19.18
2018-12-02T11:20:25.498Z,19.16
2018-12-02T11:21:26.330Z,19.10
2018-12-02T11:22:25.465Z,19.19
2018-12-02T11:23:25.451Z,19.18
2018-12-02T11:24:25.432Z,19.18
2018-12-02T11:25:25.438Z,19.19
2018-12-02T11:26:25.408Z,19.19
2018-12-02T11:27:26.331Z,19.19
2018-12-02T11:28:25.398Z,19.23
2018-12-02T11:29:25.370Z,19.22
2018-12-02T11:30:25.389Z,19.11
2018-12-02T11:31:25.353Z,19.18
2018-12-02T11:32:25.333Z,19.18
2018-12-02T11:33:25.378Z,19.18
2018-12-02T11:34:25.365Z,19.18
2018-12-02T11:35:25.324Z,19.16
2018-12-02T11:36:25.291Z,19.19
2018-12-02T11:37:25.287Z,19.18
2018-12-02T11:38:25.280Z,19.23
2018-12-02T11:39:25.289Z,19.19
2018-12-02T11:40:25.343Z,19.18
2018-12-02T11:41:25.238Z,19.21
2018-12-02T11:42:25.227Z,19.10
2018-12-02T11:43:25.830Z,19.21
2018-12-02T11:44:25.255Z,19.21
2018-12-02T11:45:25.219Z,19.14
2018-12-02T11:46:25.182Z,19.21
2018-12-02T11:47:25.173Z,19.19
2018-12-02T11:48:25.831Z,19.22
2018-12-02T11:49:25.155Z,19.19
2018-12-02T11:50:25.857Z,19.25
2018-12-02T11:51:25.128Z,19.28
2018-12-02T11:52:25.118Z,19.18
2018-12-02T11:53:25.107Z,19.28
2018-12-02T11:54:25.093Z,19.26
2018-12-02T11:55:25.098Z,19.21
2018-12-02T11:56:25.078Z,19.23
2018-12-02T11:57:26.667Z,19.23
2018-12-02T11:58:25.056Z,19.21
2018-12-02T11:59:25.044Z,19.18
2018-12-02T12:00:25.344Z,19.22
2018-12-02T12:01:25.021Z,19.19
2018-12-02T12:02:25.008Z,19.28
2018-12-02T12:03:24.998Z,19.22
2018-12-02T12:04:24.986Z,19.23
2018-12-02T12:05:24.998Z,19.23
2018-12-02T12:06:24.965Z,19.26
2018-12-02T12:07:24.951Z,19.18
2018-12-02T12:08:24.943Z,19.23
2018-12-02T12:09:24.931Z,19.21
2018-12-02T12:10:24.956Z,19.22
2018-12-02T12:11:24.929Z,19.23
2018-12-02T12:12:24.896Z,19.22
2018-12-02T12:13:24.886Z,19.23
2018-12-02T12:14:25.833Z,19.22
2018-12-02T12:15:24.902Z,19.21
2018-12-02T12:16:24.858Z,19.26
2018-12-02T12:17:24.842Z,19.18
2018-12-02T12:18:25.339Z,19.22
2018-12-02T12:19:24.827Z,19.22
2018-12-02T12:20:24.839Z,19.22
2018-12-02T12:21:25.330Z,19.23
2018-12-02T12:22:24.790Z,19.21
2018-12-02T12:23:25.331Z,19.26
2018-12-02T12:24:24.766Z,19.22
2018-12-02T12:25:24.781Z,19.19
2018-12-02T12:26:25.334Z,19.19
2018-12-02T12:27:24.733Z,19.21
2018-12-02T12:28:25.328Z,19.23
2018-12-02T12:29:24.714Z,19.19
2018-12-02T12:30:24.859Z,19.21
2018-12-02T12:31:24.691Z,19.28
2018-12-02T12:32:24.687Z,19.21
2018-12-02T12:33:24.667Z,19.22
2018-12-02T12:34:24.654Z,19.23
2018-12-02T12:35:24.878Z,19.22
2018-12-02T12:36:24.644Z,19.21
2018-12-02T12:37:25.333Z,19.23
2018-12-02T12:38:24.613Z,19.25
2018-12-02T12:39:24.607Z,19.23
2018-12-02T12:40:24.611Z,19.19
2018-12-02T12:41:25.338Z,19.28
2018-12-02T12:42:24.575Z,19.25
2018-12-02T12:43:25.335Z,19.25
2018-12-02T12:44:24.546Z,19.23
2018-12-02T12:45:24.551Z,19.26
2018-12-02T12:46:24.524Z,19.25
2018-12-02T12:47:24.516Z,19.26
2018-12-02T12:48:24.506Z,19.26
2018-12-02T12:49:24.497Z,19.23
2018-12-02T12:50:24.502Z,19.23
2018-12-02T12:51:24.468Z,19.21
2018-12-02T12:52:24.457Z,19.22